Time;durP1;ratioP1;P1;durP2;ratioP2;P2;SDS_P1;SDS_P2;PMS_P1;PMS_P2;Temp;Humidity;BMP_temperature;BMP_pressure;BME280_temperature;BME280_humidity;BME280_pressure;Samples;Min_cycle;Max_cycle;Signal;HPM_P1;HPM_P2
2021/06/22 00:00:49;;;;;;;1.85;0.90;;;26.90;41.50;;;;;;4993574;28;20287;-44
2021/06/22 00:03:16;;;;;;;1.10;1.00;;;26.90;41.50;;;;;;4992969;28;20204;-42
2021/06/22 00:05:43;;;;;;;1.17;0.93;;;26.90;41.50;;;;;;4992998;28;20239;-42
2021/06/22 00:08:09;;;;;;;0.90;0.90;;;26.90;41.50;;;;;;4992914;28;20231;-45
2021/06/22 00:10:36;;;;;;;1.17;0.88;;;26.90;41.50;;;;;;4994397;28;20318;-44
2021/06/22 00:13:02;;;;;;;1.77;1.00;;;26.90;41.50;;;;;;4992459;28;20202;-45
2021/06/22 00:15:28;;;;;;;1.45;0.70;;;26.90;41.50;;;;;;4993610;28;20204;-44
2021/06/22 00:17:55;;;;;;;1.25;0.90;;;26.90;41.50;;;;;;4992081;28;20243;-46
2021/06/22 00:20:22;;;;;;;1.02;0.93;;;26.80;41.40;;;;;;4994397;28;20211;-45
2021/06/22 00:22:49;;;;;;;1.20;0.80;;;26.80;41.40;;;;;;4992560;28;20206;-45
2021/06/22 00:25:15;;;;;;;1.20;1.10;;;26.80;41.40;;;;;;4992025;28;20207;-45
2021/06/22 00:27:42;;;;;;;0.98;0.70;;;26.80;41.40;;;;;;4993289;28;20223;-47
2021/06/22 00:30:08;;;;;;;1.27;1.08;;;26.90;41.50;;;;;;4993151;28;20204;-42
2021/06/22 00:32:35;;;;;;;0.88;0.88;;;26.80;41.40;;;;;;4993891;28;20211;-42
2021/06/22 00:35:01;;;;;;;0.90;0.90;;;26.90;41.50;;;;;;4990826;28;20212;-45
2021/06/22 00:37:27;;;;;;;1.00;0.90;;;26.80;41.50;;;;;;4993273;28;20231;-44
2021/06/22 00:39:54;;;;;;;1.48;1.05;;;26.90;41.60;;;;;;4992302;28;20577;-42
2021/06/22 00:42:20;;;;;;;1.83;0.80;;;26.90;41.60;;;;;;4993754;28;20238;-45
2021/06/22 00:44:47;;;;;;;1.85;1.00;;;26.90;41.60;;;;;;4991463;28;20210;-45
2021/06/22 00:47:13;;;;;;;0.85;0.77;;;26.80;41.50;;;;;;4993288;28;20302;-44
2021/06/22 00:49:40;;;;;;;0.82;0.82;;;26.80;41.50;;;;;;4992410;28;20207;-45
2021/06/22 00:52:06;;;;;;;1.08;0.98;;;26.80;41.50;;;;;;4993422;28;20243;-43
2021/06/22 00:54:33;;;;;;;1.73;1.10;;;26.80;41.50;;;;;;4991261;28;20207;-44
2021/06/22 00:56:59;;;;;;;0.93;0.77;;;26.80;41.60;;;;;;4992162;28;20228;-49
2021/06/22 00:59:25;;;;;;;0.70;0.70;;;26.80;41.60;;;;;;4991864;28;20792;-42
2021/06/22 01:01:52;;;;;;;1.45;0.80;;;26.80;41.60;;;;;;4993525;28;20580;-41
2021/06/22 01:04:18;;;;;;;1.45;0.80;;;26.80;41.60;;;;;;4991539;28;20226;-45
2021/06/22 01:06:45;;;;;;;0.93;0.80;;;26.80;41.60;;;;;;4992446;28;20246;-44
2021/06/22 01:09:11;;;;;;;1.70;0.98;;;26.80;41.60;;;;;;4991724;28;20230;-45
2021/06/22 01:11:38;;;;;;;1.35;0.73;;;26.90;41.70;;;;;;4992580;28;20203;-42
2021/06/22 01:14:05;;;;;;;1.30;0.80;;;26.90;41.70;;;;;;4988797;28;20196;-42
2021/06/22 01:16:31;;;;;;;0.70;0.70;;;26.80;41.60;;;;;;4986736;28;20318;-43
2021/06/22 01:18:57;;;;;;;1.20;0.77;;;26.80;41.70;;;;;;4991710;28;20299;-46
2021/06/22 01:21:24;;;;;;;1.27;0.82;;;26.90;41.70;;;;;;4992914;28;20211;-42
2021/06/22 01:23:50;;;;;;;1.10;0.85;;;26.80;41.60;;;;;;4991559;28;20214;-42
2021/06/22 01:26:17;;;;;;;1.30;0.98;;;26.90;41.80;;;;;;4987121;28;20228;-42
2021/06/22 01:28:43;;;;;;;1.40;1.00;;;26.80;41.80;;;;;;4989691;28;20207;-46
2021/06/22 01:31:10;;;;;;;2.70;1.00;;;26.80;41.80;;;;;;4991931;28;20200;-42
2021/06/22 01:33:36;;;;;;;1.23;0.80;;;26.80;41.90;;;;;;4991691;28;20678;-42
2021/06/22 01:36:02;;;;;;;1.13;0.90;;;26.80;41.90;;;;;;4991347;28;20540;-48
2021/06/22 01:38:29;;;;;;;1.65;0.95;;;26.80;42.00;;;;;;4990777;28;20235;-49
2021/06/22 01:40:55;;;;;;;1.13;0.90;;;26.80;41.90;;;;;;4973535;28;20200;-50
2021/06/22 01:43:22;;;;;;;1.70;0.80;;;26.80;42.00;;;;;;4990052;28;20203;-45
2021/06/22 01:45:50;;;;;;;2.08;0.80;;;26.80;42.00;;;;;;4990621;28;20200;-47
2021/06/22 01:48:16;;;;;;;1.45;1.00;;;26.80;42.00;;;;;;4990703;28;20199;-45
2021/06/22 01:50:42;;;;;;;1.67;1.00;;;26.80;42.00;;;;;;4992256;28;20208;-48
2021/06/22 01:53:09;;;;;;;0.93;0.80;;;26.80;42.00;;;;;;4990444;28;20199;-46
2021/06/22 01:55:37;;;;;;;1.02;0.90;;;26.80;42.00;;;;;;4989737;28;20207;-47
2021/06/22 01:58:03;;;;;;;1.70;1.13;;;26.80;42.00;;;;;;4990303;28;20235;-51
2021/06/22 02:00:30;;;;;;;0.75;0.75;;;26.80;42.00;;;;;;4990623;28;20208;-47
2021/06/22 02:02:56;;;;;;;1.20;0.77;;;26.80;42.00;;;;;;4991737;28;20295;-48
2021/06/22 02:05:23;;;;;;;2.72;1.00;;;26.80;42.10;;;;;;4990844;28;20207;-49
2021/06/22 02:07:49;;;;;;;2.03;1.20;;;26.80;42.00;;;;;;4990157;28;20314;-44
2021/06/22 02:10:15;;;;;;;2.72;0.93;;;26.80;42.10;;;;;;4991500;28;20207;-48
2021/06/22 02:12:42;;;;;;;1.10;1.08;;;26.80;42.10;;;;;;4990853;28;20204;-46
2021/06/22 02:17:44;;;;;;;1.13;0.80;;;26.80;42.10;;;;;;5377080;23;20344;-53
2021/06/22 02:20:10;;;;;;;1.33;0.80;;;26.80;42.20;;;;;;4971251;28;20259;-54
2021/06/22 02:22:37;;;;;;;0.70;0.70;;;26.80;42.20;;;;;;4969526;28;20299;-54
2021/06/22 02:25:03;;;;;;;2.45;1.00;;;26.80;42.10;;;;;;4972118;28;20204;-50
2021/06/22 02:27:29;;;;;;;1.02;0.90;;;26.80;42.10;;;;;;4969206;28;20216;-51
2021/06/22 02:29:56;;;;;;;0.82;0.70;;;26.80;42.20;;;;;;4964949;28;20207;-52
2021/06/22 02:32:22;;;;;;;0.95;0.90;;;26.80;42.20;;;;;;4970532;23;20251;-46
2021/06/22 02:34:49;;;;;;;1.00;0.90;;;26.80;42.20;;;;;;4952585;28;20211;-42
2021/06/22 02:37:15;;;;;;;1.48;0.70;;;26.80;42.20;;;;;;4950808;28;20225;-45
2021/06/22 02:39:42;;;;;;;0.95;0.65;;;26.80;42.30;;;;;;4954213;28;20205;-45
2021/06/22 02:42:08;;;;;;;1.33;0.90;;;26.80;42.20;;;;;;4953628;28;20645;-45
2021/06/22 02:44:35;;;;;;;1.85;0.70;;;26.80;42.30;;;;;;4954793;28;20574;-43
2021/06/22 02:47:01;;;;;;;1.00;0.80;;;26.80;42.30;;;;;;4954020;28;20716;-46
2021/06/22 02:49:27;;;;;;;0.90;0.90;;;26.80;42.30;;;;;;4957071;28;20587;-45
2021/06/22 02:51:54;;;;;;;0.80;0.80;;;26.80;42.30;;;;;;4960998;28;20555;-46
2021/06/22 02:54:20;;;;;;;0.80;0.80;;;26.80;42.30;;;;;;4951430;28;20570;-46
2021/06/22 02:56:47;;;;;;;0.90;0.80;;;26.80;42.30;;;;;;4951257;28;20255;-42
2021/06/22 02:59:14;;;;;;;1.40;0.90;;;26.80;43.00;;;;;;4956896;28;20203;-42
2021/06/22 03:01:40;;;;;;;1.45;0.70;;;26.80;42.30;;;;;;4960057;28;20663;-48
2021/06/22 03:04:06;;;;;;;3.33;1.30;;;26.80;42.30;;;;;;4956437;29;20582;-45
2021/06/22 03:06:33;;;;;;;1.35;1.00;;;26.80;42.40;;;;;;4955550;28;20595;-43
2021/06/22 03:08:59;;;;;;;0.77;0.70;;;26.80;42.40;;;;;;4955110;28;20292;-43
2021/06/22 03:11:26;;;;;;;1.80;0.80;;;26.80;42.40;;;;;;4974355;28;20205;-44
2021/06/22 03:13:52;;;;;;;0.70;0.70;;;26.80;42.40;;;;;;4965211;28;20226;-52
2021/06/22 03:16:19;;;;;;;1.10;0.90;;;26.80;42.40;;;;;;4961550;28;20403;-51
2021/06/22 03:18:45;;;;;;;0.70;0.70;;;26.80;42.40;;;;;;4965380;28;20255;-47
2021/06/22 03:21:12;;;;;;;1.45;0.80;;;26.80;42.40;;;;;;4963919;28;20205;-50
2021/06/22 03:23:38;;;;;;;1.98;0.80;;;26.80;42.40;;;;;;4965411;28;20560;-48
2021/06/22 03:26:05;;;;;;;1.38;0.82;;;26.80;42.50;;;;;;4955353;28;20597;-51
2021/06/22 03:28:31;;;;;;;0.70;0.70;;;26.80;42.50;;;;;;4960058;28;20610;-46
2021/06/22 03:30:58;;;;;;;1.35;0.70;;;26.80;42.40;;;;;;4964237;28;20645;-44
2021/06/22 03:33:24;;;;;;;1.10;0.80;;;26.80;42.50;;;;;;4943978;28;20209;-46
2021/06/22 03:35:51;;;;;;;1.10;0.90;;;26.80;42.40;;;;;;4956331;29;20264;-50
2021/06/22 03:38:17;;;;;;;2.15;0.70;;;26.80;42.40;;;;;;4954608;28;20230;-52
2021/06/22 03:40:43;;;;;;;0.98;0.90;;;26.80;42.50;;;;;;4953582;29;20208;-53
2021/06/22 03:43:10;;;;;;;0.80;0.80;;;26.80;42.60;;;;;;4955283;28;20482;-52
2021/06/22 03:45:36;;;;;;;1.60;0.98;;;26.80;42.50;;;;;;4959944;28;20221;-46
2021/06/22 03:48:03;;;;;;;1.15;0.75;;;26.80;42.50;;;;;;4973088;28;20211;-51
2021/06/22 03:50:29;;;;;;;1.08;0.80;;;26.80;42.70;;;;;;4954932;28;20205;-47
2021/06/22 03:52:56;;;;;;;0.80;0.80;;;26.80;42.60;;;;;;4955424;28;20209;-45
2021/06/22 03:55:29;;;;;;;0.70;0.70;;;26.80;42.70;;;;;;4956055;28;20228;-52
2021/06/22 03:57:55;;;;;;;0.75;0.70;;;26.80;42.70;;;;;;4955100;29;20241;-49
2021/06/22 04:00:22;;;;;;;0.93;0.77;;;26.80;42.70;;;;;;4954532;28;20288;-44
2021/06/22 04:02:48;;;;;;;1.00;0.85;;;26.80;42.70;;;;;;4954608;28;20205;-45
2021/06/22 04:05:14;;;;;;;0.75;0.75;;;26.80;42.80;;;;;;4962066;28;20226;-49
2021/06/22 04:07:41;;;;;;;1.10;1.00;;;26.80;42.80;;;;;;4961518;28;20307;-46
2021/06/22 04:10:07;;;;;;;1.10;0.80;;;26.80;42.80;;;;;;4955649;28;20540;-51
2021/06/22 04:12:34;;;;;;;0.70;0.70;;;26.80;42.80;;;;;;4954990;28;20552;-49
2021/06/22 04:15:00;;;;;;;1.02;0.80;;;26.80;42.80;;;;;;4955833;28;20227;-49
2021/06/22 04:17:27;;;;;;;1.85;0.77;;;26.80;42.90;;;;;;4954172;28;20233;-52
2021/06/22 04:19:54;;;;;;;0.93;0.70;;;26.80;42.80;;;;;;4963222;28;20583;-48
2021/06/22 04:22:20;;;;;;;0.90;0.85;;;26.80;42.80;;;;;;4953853;28;20211;-50
2021/06/22 04:24:47;;;;;;;2.75;1.00;;;26.80;42.80;;;;;;4955521;28;20211;-45
2021/06/22 04:27:13;;;;;;;0.70;0.70;;;26.80;43.50;;;;;;4971440;28;20200;-50
2021/06/22 04:29:40;;;;;;;1.10;0.95;;;26.80;42.90;;;;;;4954728;28;20201;-50
2021/06/22 04:32:06;;;;;;;0.82;0.75;;;26.80;42.80;;;;;;4955237;28;20673;-48
2021/06/22 04:34:32;;;;;;;1.05;0.95;;;26.80;42.80;;;;;;4963944;28;20227;-46
2021/06/22 04:36:59;;;;;;;1.60;0.85;;;26.80;42.90;;;;;;4958180;28;20251;-55
2021/06/22 04:39:25;;;;;;;1.45;0.80;;;26.80;42.90;;;;;;4954778;28;20235;-50
2021/06/22 04:41:52;;;;;;;0.82;0.80;;;26.80;42.90;;;;;;4967300;28;20200;-52
2021/06/22 04:44:18;;;;;;;1.73;0.77;;;26.80;42.90;;;;;;4962565;28;20205;-54
2021/06/22 04:46:45;;;;;;;2.70;0.98;;;26.80;42.90;;;;;;4964409;28;20594;-47
2021/06/22 04:49:11;;;;;;;0.93;0.77;;;26.80;42.90;;;;;;4956882;28;20232;-46
2021/06/22 04:51:38;;;;;;;1.55;1.00;;;26.80;42.90;;;;;;4965554;28;20215;-49
2021/06/22 04:54:04;;;;;;;1.75;0.80;;;26.80;43.60;;;;;;4959350;28;20206;-47
2021/06/22 04:56:30;;;;;;;1.63;1.13;;;26.80;42.80;;;;;;4953772;28;20225;-49
2021/06/22 04:58:57;;;;;;;1.58;0.80;;;26.80;42.80;;;;;;4955011;29;20331;-50
2021/06/22 05:01:23;;;;;;;1.10;1.00;;;26.80;42.80;;;;;;4954778;28;20292;-47
2021/06/22 05:03:50;;;;;;;0.55;0.55;;;26.80;42.80;;;;;;4954614;28;20203;-47
2021/06/22 05:06:16;;;;;;;1.15;0.93;;;26.80;42.80;;;;;;4960557;28;20224;-45
2021/06/22 05:08:43;;;;;;;1.50;0.80;;;26.80;42.80;;;;;;4953232;28;20202;-54
2021/06/22 05:11:09;;;;;;;1.77;0.88;;;26.80;42.90;;;;;;4956824;28;20292;-49
2021/06/22 05:13:36;;;;;;;1.27;0.90;;;26.80;42.90;;;;;;4972294;28;20209;-42
2021/06/22 05:16:02;;;;;;;0.80;0.80;;;26.80;42.90;;;;;;4954353;28;20225;-43
2021/06/22 05:18:29;;;;;;;3.60;1.05;;;26.80;42.90;;;;;;4953753;29;20653;-55
2021/06/22 05:20:55;;;;;;;0.85;0.85;;;26.80;42.90;;;;;;4955093;28;20293;-44
2021/06/22 05:23:22;;;;;;;1.10;0.80;;;26.80;43.00;;;;;;4952801;28;20201;-41
2021/06/22 05:25:48;;;;;;;1.10;1.00;;;26.80;42.90;;;;;;4958526;28;20263;-49
2021/06/22 05:28:14;;;;;;;1.98;1.20;;;26.80;43.00;;;;;;4960810;28;20205;-50
2021/06/22 05:30:41;;;;;;;0.77;0.63;;;26.80;43.00;;;;;;4953856;29;20213;-47
2021/06/22 05:33:07;;;;;;;2.28;1.00;;;26.80;43.00;;;;;;4961246;28;20212;-43
2021/06/22 05:35:34;;;;;;;0.70;0.70;;;26.80;42.90;;;;;;4957348;28;20225;-52
2021/06/22 05:38:00;;;;;;;0.68;0.68;;;26.80;42.90;;;;;;4960149;28;20272;-47
2021/06/22 05:40:27;;;;;;;1.73;0.80;;;26.80;42.90;;;;;;4953519;28;20205;-44
2021/06/22 05:42:53;;;;;;;2.13;1.00;;;26.80;42.80;;;;;;4955697;28;20224;-49
2021/06/22 05:45:20;;;;;;;1.33;0.90;;;26.80;42.80;;;;;;4952042;28;20282;-45
2021/06/22 05:47:46;;;;;;;1.02;0.77;;;26.80;42.90;;;;;;4953297;28;20205;-44
2021/06/22 05:50:12;;;;;;;2.03;0.90;;;26.80;42.90;;;;;;4952877;28;20595;-43
2021/06/22 05:52:39;;;;;;;0.90;0.77;;;26.80;42.90;;;;;;4952531;29;20287;-44
2021/06/22 05:55:16;;;;;;;1.15;0.82;;;26.80;42.90;;;;;;4962015;28;20232;-43
2021/06/22 05:57:42;;;;;;;1.13;0.90;;;26.80;42.90;;;;;;4957392;28;20291;-44
2021/06/22 06:00:11;;;;;;;0.90;0.82;;;26.80;42.80;;;;;;4952516;28;20202;-48
2021/06/22 06:02:37;;;;;;;2.97;0.98;;;26.90;42.80;;;;;;4952540;28;20212;-48
2021/06/22 06:05:04;;;;;;;1.38;0.90;;;26.80;43.00;;;;;;4957616;28;20273;-50
2021/06/22 06:07:30;;;;;;;1.45;0.90;;;26.90;43.10;;;;;;4965179;28;20206;-42
2021/06/22 06:09:57;;;;;;;1.73;1.20;;;26.80;43.00;;;;;;4954513;28;20748;-42
2021/06/22 06:12:23;;;;;;;2.60;1.13;;;26.80;43.00;;;;;;4952635;28;20604;-43
2021/06/22 06:14:49;;;;;;;2.92;1.45;;;26.70;43.10;;;;;;4956853;28;20227;-43
2021/06/22 06:17:16;;;;;;;2.47;1.15;;;26.80;43.60;;;;;;4952301;28;20204;-43
2021/06/22 06:19:42;;;;;;;4.65;2.75;;;26.70;42.80;;;;;;4953119;29;20240;-48
2021/06/22 06:22:09;;;;;;;3.05;1.60;;;25.90;44.40;;;;;;4946471;28;20288;-44
2021/06/22 06:24:35;;;;;;;2.83;1.38;;;24.50;46.20;;;;;;4951941;29;20229;-46
2021/06/22 06:27:06;;;;;;;6.88;2.03;;;24.90;46.50;;;;;;4951226;28;20209;-43
2021/06/22 06:29:41;;;;;;;4.25;2.17;;;25.40;48.80;;;;;;4948129;28;20256;-44
2021/06/22 06:32:08;;;;;;;8.43;2.60;;;25.70;46.00;;;;;;4952874;29;20216;-50
2021/06/22 06:34:34;;;;;;;5.13;2.10;;;25.80;53.90;;;;;;4951824;28;20247;-44
2021/06/22 06:37:01;;;;;;;5.40;1.75;;;26.00;56.10;;;;;;4952486;29;20231;-45
2021/06/22 06:39:27;;;;;;;5.03;1.65;;;26.10;56.60;;;;;;4952748;29;20247;-47
2021/06/22 06:41:54;;;;;;;4.18;1.90;;;26.20;57.80;;;;;;4954239;28;20263;-44
2021/06/22 06:44:20;;;;;;;6.80;2.00;;;26.10;56.90;;;;;;4959574;28;20232;-44
2021/06/22 06:46:47;;;;;;;8.82;2.15;;;26.00;53.50;;;;;;4951492;28;20215;-46
2021/06/22 06:49:13;;;;;;;5.15;2.10;;;25.90;53.60;;;;;;4959050;28;20211;-42
2021/06/22 06:51:40;;;;;;;4.45;1.83;;;25.90;53.40;;;;;;4932759;29;20206;-43
2021/06/22 06:54:06;;;;;;;6.18;1.60;;;26.00;53.20;;;;;;4944324;28;20288;-46
2021/06/22 06:56:33;;;;;;;3.58;1.80;;;25.90;53.80;;;;;;4962346;28;20211;-44
2021/06/22 06:58:59;;;;;;;2.47;1.83;;;25.80;53.80;;;;;;4967974;28;20224;-45
2021/06/22 07:01:25;;;;;;;6.63;1.80;;;25.10;54.10;;;;;;4966155;28;20215;-50
2021/06/22 07:03:53;;;;;;;2.75;1.80;;;23.90;66.10;;;;;;4963521;28;20216;-45
2021/06/22 07:06:19;;;;;;;4.57;1.80;;;23.90;71.70;;;;;;4952655;29;20254;-45
2021/06/22 07:08:46;;;;;;;3.70;1.73;;;23.60;76.90;;;;;;4951882;29;20205;-47
2021/06/22 07:11:13;;;;;;;2.97;1.60;;;23.70;47.20;;;;;;4955733;28;20205;-48
2021/06/22 07:13:39;;;;;;;3.80;1.70;;;23.70;47.40;;;;;;4964034;28;20664;-47
2021/06/22 07:16:05;;;;;;;3.75;1.92;;;23.80;47.40;;;;;;4954372;28;20256;-43
2021/06/22 07:18:32;;;;;;;3.05;1.60;;;23.90;47.20;;;;;;4951732;29;20232;-51
2021/06/22 07:20:58;;;;;;;2.92;1.60;;;24.20;46.70;;;;;;4960389;28;20205;-46
2021/06/22 07:23:25;;;;;;;3.50;1.65;;;24.50;45.70;;;;;;4966086;28;20217;-48
2021/06/22 07:25:51;;;;;;;2.47;1.90;;;24.80;45.70;;;;;;4955670;28;20227;-50
2021/06/22 07:28:18;;;;;;;4.68;2.65;;;24.80;45.60;;;;;;4952195;28;20308;-48
2021/06/22 07:30:44;;;;;;;3.38;2.13;;;24.60;45.60;;;;;;4951727;28;20631;-44
2021/06/22 07:33:11;;;;;;;3.33;1.85;;;23.60;48.00;;;;;;4956940;28;20654;-45
2021/06/22 07:35:38;;;;;;;3.40;2.40;;;24.00;47.20;;;;;;4951487;28;20239;-46
2021/06/22 07:38:04;;;;;;;5.45;2.30;;;24.00;47.00;;;;;;4951937;28;20221;-44
2021/06/22 07:40:31;;;;;;;2.90;1.70;;;23.40;47.10;;;;;;4952342;29;20275;-49
2021/06/22 07:42:57;;;;;;;2.75;1.52;;;24.00;47.30;;;;;;4962099;28;20212;-42
2021/06/22 07:45:23;;;;;;;2.42;1.75;;;24.60;46.10;;;;;;4964583;28;20323;-42
2021/06/22 07:47:50;;;;;;;1.67;1.40;;;25.00;45.40;;;;;;4960422;28;20201;-42
2021/06/22 07:50:16;;;;;;;2.90;1.60;;;25.20;44.70;;;;;;4953959;28;20237;-42
2021/06/22 07:52:43;;;;;;;2.35;1.95;;;24.80;44.70;;;;;;4957039;28;20551;-41
2021/06/22 07:55:13;;;;;;;3.08;1.40;;;23.90;46.60;;;;;;4955151;28;20567;-43
2021/06/22 07:57:40;;;;;;;4.90;2.10;;;24.40;46.10;;;;;;4952664;28;20201;-43
2021/06/22 08:02:47;;;;;;;3.45;2.75;;;24.50;46.00;;;;;;4948689;28;20259;-43
2021/06/22 08:05:13;;;;;;;3.00;2.10;;;24.40;45.60;;;;;;4952226;28;20227;-45
2021/06/22 08:07:39;;;;;;;2.70;1.83;;;24.60;45.90;;;;;;4954526;29;20211;-42
2021/06/22 08:10:06;;;;;;;3.38;1.90;;;25.00;44.90;;;;;;4954406;28;20206;-43
2021/06/22 08:12:32;;;;;;;2.03;1.50;;;25.00;44.20;;;;;;4952524;28;20201;-44
2021/06/22 08:14:59;;;;;;;2.85;1.55;;;25.20;43.90;;;;;;4954258;28;20221;-44
2021/06/22 08:17:25;;;;;;;3.33;1.50;;;25.30;43.80;;;;;;4954991;28;20211;-42
2021/06/22 08:19:52;;;;;;;2.75;1.77;;;25.30;44.00;;;;;;4959470;28;20236;-44
2021/06/22 08:22:18;;;;;;;3.42;1.73;;;24.40;45.10;;;;;;4954238;28;20297;-50
2021/06/22 08:24:45;;;;;;;2.45;1.33;;;24.40;45.30;;;;;;4954915;29;20221;-41
2021/06/22 08:27:11;;;;;;;3.28;1.50;;;24.80;45.30;;;;;;4953658;28;20209;-45
2021/06/22 08:29:38;;;;;;;3.10;1.80;;;24.80;44.10;;;;;;4954136;28;20209;-43
2021/06/22 08:32:05;;;;;;;1.80;1.35;;;24.20;46.30;;;;;;4949838;28;20607;-43
2021/06/22 08:34:31;;;;;;;3.88;1.67;;;24.80;45.80;;;;;;4954301;29;20272;-46
2021/06/22 08:36:57;;;;;;;2.38;1.50;;;25.00;44.70;;;;;;4954150;28;20320;-42
2021/06/22 08:39:24;;;;;;;3.47;1.52;;;24.90;44.40;;;;;;4953827;28;20299;-45
2021/06/22 08:41:50;;;;;;;2.30;1.40;;;24.90;44.90;;;;;;4954072;29;20906;-46
2021/06/22 08:44:17;;;;;;;4.38;2.05;;;25.00;45.00;;;;;;4952701;28;20646;-42
2021/06/22 08:46:43;;;;;;;2.72;1.65;;;24.20;45.80;;;;;;4951306;28;20671;-40
2021/06/22 08:49:10;;;;;;;3.60;1.52;;;24.40;45.80;;;;;;4935794;29;20578;-39
2021/06/22 08:51:37;;;;;;;3.22;1.60;;;24.70;45.50;;;;;;4945723;28;20530;-42
2021/06/22 08:54:03;;;;;;;2.63;1.65;;;25.10;45.20;;;;;;4952885;28;20300;-42
2021/06/22 08:56:30;;;;;;;2.85;1.42;;;25.30;44.90;;;;;;4952339;28;20213;-42
2021/06/22 08:58:56;;;;;;;2.03;1.50;;;25.40;44.50;;;;;;4954071;29;20269;-41
2021/06/22 09:01:22;;;;;;;2.50;1.50;;;25.60;44.20;;;;;;4954070;29;20219;-43
2021/06/22 09:03:49;;;;;;;2.17;1.50;;;25.60;44.60;;;;;;4953719;29;20231;-41
2021/06/22 09:06:15;;;;;;;1.35;1.13;;;25.60;44.20;;;;;;4954116;29;20205;-42
2021/06/22 09:08:42;;;;;;;3.75;1.48;;;25.60;44.20;;;;;;4953645;29;20213;-46
2021/06/22 09:11:08;;;;;;;1.70;1.60;;;25.70;44.20;;;;;;4954528;28;20213;-44
2021/06/22 09:13:35;;;;;;;2.40;1.85;;;25.70;44.10;;;;;;4953728;29;20225;-42
2021/06/22 09:16:01;;;;;;;1.75;1.00;;;25.70;44.20;;;;;;4947941;29;20198;-42
2021/06/22 09:18:27;;;;;;;2.10;1.30;;;25.80;44.30;;;;;;4953723;28;20236;-44
2021/06/22 09:20:54;;;;;;;2.35;1.35;;;25.80;44.00;;;;;;4953640;29;20205;-42
2021/06/22 09:23:20;;;;;;;3.58;1.20;;;25.80;44.30;;;;;;4953503;29;20237;-44
2021/06/22 09:25:47;;;;;;;3.88;1.75;;;25.80;44.30;;;;;;4953716;29;20205;-44
2021/06/22 09:28:13;;;;;;;3.92;2.20;;;25.80;43.70;;;;;;4950772;28;20201;-45
2021/06/22 09:30:40;;;;;;;6.93;2.28;;;25.90;43.20;;;;;;4949290;28;20202;-42
2021/06/22 09:33:06;;;;;;;3.25;1.67;;;25.80;44.30;;;;;;4949877;28;20233;-41
2021/06/22 09:35:33;;;;;;;2.63;1.42;;;25.90;43.30;;;;;;4952102;28;20205;-45
2021/06/22 09:37:59;;;;;;;2.05;1.60;;;25.90;42.80;;;;;;4951027;28;20205;-43
2021/06/22 09:40:26;;;;;;;2.47;1.80;;;25.90;42.50;;;;;;4952096;28;20241;-43
2021/06/22 09:42:52;;;;;;;3.55;1.48;;;25.20;43.90;;;;;;4952330;28;20228;-43
2021/06/22 09:45:19;;;;;;;2.38;1.52;;;25.20;43.90;;;;;;4953364;28;20206;-46
2021/06/22 09:47:45;;;;;;;2.30;1.42;;;25.20;43.70;;;;;;4937775;28;20198;-42
2021/06/22 09:50:11;;;;;;;2.33;1.63;;;25.20;43.20;;;;;;4950014;28;20219;-41
2021/06/22 09:52:38;;;;;;;2.88;1.50;;;25.50;43.10;;;;;;4939063;28;20242;-43
2021/06/22 09:55:04;;;;;;;3.70;1.52;;;25.60;42.90;;;;;;4944322;29;20205;-44
2021/06/22 09:57:31;;;;;;;2.70;1.40;;;25.30;43.30;;;;;;4933088;29;20227;-44
2021/06/22 09:59:58;;;;;;;2.28;1.52;;;25.60;42.80;;;;;;4932426;29;20255;-44
2021/06/22 10:02:24;;;;;;;2.00;1.27;;;25.70;42.40;;;;;;4933539;29;20257;-45
2021/06/22 10:04:51;;;;;;;1.60;1.33;;;25.80;42.40;;;;;;4934221;29;20624;-43
2021/06/22 10:07:17;;;;;;;3.05;1.50;;;25.90;42.70;;;;;;4930736;29;20582;-48
2021/06/22 10:09:44;;;;;;;3.60;2.00;;;25.60;43.00;;;;;;4920146;29;20229;-43
2021/06/22 10:12:10;;;;;;;2.83;1.42;;;25.20;43.90;;;;;;4922502;29;20213;-42
2021/06/22 10:14:36;;;;;;;3.17;1.42;;;25.60;42.90;;;;;;4915862;29;20239;-45
2021/06/22 10:17:03;;;;;;;1.83;1.40;;;25.70;41.90;;;;;;4931200;29;20210;-44
2021/06/22 10:19:29;;;;;;;2.70;1.70;;;25.50;42.80;;;;;;4935342;29;20229;-48
2021/06/22 10:21:56;;;;;;;3.85;1.60;;;25.80;42.50;;;;;;4941632;29;20209;-46
2021/06/22 10:24:22;;;;;;;2.85;1.58;;;25.80;42.50;;;;;;4941764;29;20301;-44
2021/06/22 10:26:49;;;;;;;2.50;1.63;;;25.60;42.80;;;;;;4932208;29;20206;-48
2021/06/22 10:29:15;;;;;;;3.05;1.85;;;25.40;43.30;;;;;;4940244;29;20201;-46
2021/06/22 10:31:42;;;;;;;4.50;2.03;;;25.60;43.00;;;;;;4947394;29;20745;-45
2021/06/22 10:34:08;;;;;;;3.03;1.70;;;25.80;41.80;;;;;;4937228;29;20312;-43
2021/06/22 10:36:35;;;;;;;2.03;1.30;;;25.80;41.50;;;;;;4935131;29;20213;-41
2021/06/22 10:39:01;;;;;;;2.28;1.33;;;25.70;42.30;;;;;;4935968;29;20234;-51
2021/06/22 10:41:28;;;;;;;3.10;1.65;;;25.70;42.60;;;;;;4929439;29;20207;-42
2021/06/22 10:43:54;;;;;;;4.50;1.70;;;25.60;42.60;;;;;;4933175;29;20222;-45
2021/06/22 10:46:23;;;;;;;1.70;1.60;;;25.40;42.60;;;;;;4939751;29;20207;-44
2021/06/22 10:48:51;;;;;;;3.78;1.80;;;25.30;43.00;;;;;;4946886;29;20299;-44
2021/06/22 10:51:17;;;;;;;4.00;1.90;;;25.40;42.80;;;;;;4951620;29;20213;-46
2021/06/22 10:53:45;;;;;;;4.32;1.95;;;25.60;43.30;;;;;;4938402;29;20234;-47
2021/06/22 10:56:12;;;;;;;3.67;2.63;;;25.10;43.70;;;;;;4929741;29;20253;-43
2021/06/22 10:58:38;;;;;;;7.22;3.00;;;24.90;43.70;;;;;;4928202;29;20216;-50
2021/06/22 11:01:04;;;;;;;7.45;4.20;;;24.70;43.50;;;;;;4921826;29;20216;-48
2021/06/22 11:03:32;;;;;;;6.53;3.42;;;24.80;44.30;;;;;;4932590;29;20225;-47
2021/06/22 11:05:58;;;;;;;2.83;2.00;;;25.30;43.60;;;;;;4935864;29;20245;-44
2021/06/22 11:08:25;;;;;;;2.00;1.80;;;25.40;42.80;;;;;;4925841;29;20197;-48
2021/06/22 11:10:51;;;;;;;3.33;1.70;;;25.50;42.60;;;;;;4930952;29;20202;-50
2021/06/22 11:13:18;;;;;;;3.88;1.67;;;25.70;42.40;;;;;;4934872;29;20221;-49
2021/06/22 11:15:44;;;;;;;3.85;1.52;;;25.90;41.70;;;;;;4927462;29;20323;-49
2021/06/22 11:18:15;;;;;;;2.00;1.80;;;25.50;42.00;;;;;;4944381;29;20236;-52
2021/06/22 11:20:42;;;;;;;2.25;1.52;;;24.90;43.00;;;;;;4934548;29;20237;-45
2021/06/22 11:23:08;;;;;;;3.50;1.80;;;25.20;43.40;;;;;;4934710;29;20353;-49
2021/06/22 11:25:35;;;;;;;2.10;1.50;;;25.50;42.10;;;;;;4936140;29;20210;-50
2021/06/22 11:28:01;;;;;;;3.75;1.58;;;25.70;42.30;;;;;;4947558;29;20300;-49
2021/06/22 11:30:28;;;;;;;1.45;1.35;;;25.80;41.10;;;;;;4941338;29;20201;-49
2021/06/22 11:32:54;;;;;;;3.00;1.50;;;25.50;42.00;;;;;;4943775;29;20245;-50
2021/06/22 11:35:21;;;;;;;4.00;2.00;;;25.70;41.50;;;;;;4946943;29;20202;-47
2021/06/22 11:37:48;;;;;;;3.03;1.63;;;25.70;41.80;;;;;;4942493;29;20697;-51
2021/06/22 11:40:16;;;;;;;2.92;1.80;;;25.70;41.40;;;;;;4927222;29;20348;-50
2021/06/22 11:42:43;;;;;;;2.33;1.60;;;25.10;42.30;;;;;;4938856;29;20835;-52
2021/06/22 11:45:10;;;;;;;2.20;1.67;;;25.30;42.10;;;;;;4931581;29;20210;-50
2021/06/22 11:47:36;;;;;;;3.13;1.30;;;25.60;41.80;;;;;;4940496;29;20207;-47
2021/06/22 11:50:03;;;;;;;3.00;1.92;;;25.70;41.80;;;;;;4938256;29;20202;-50
2021/06/22 11:52:29;;;;;;;2.90;1.80;;;25.80;41.20;;;;;;4937607;29;20325;-46
2021/06/22 11:54:56;;;;;;;2.13;1.50;;;25.70;41.20;;;;;;4935734;29;20206;-46
2021/06/22 11:57:23;;;;;;;5.07;1.75;;;25.80;41.30;;;;;;4935278;29;20212;-46
2021/06/22 11:59:49;;;;;;;1.73;1.50;;;25.90;41.20;;;;;;4937501;29;20264;-43
2021/06/22 12:02:16;;;;;;;2.00;1.48;;;25.90;41.00;;;;;;4936046;29;20765;-45
2021/06/22 12:04:42;;;;;;;1.98;1.30;;;26.00;41.10;;;;;;4937253;29;20198;-46
2021/06/22 12:07:09;;;;;;;2.05;1.85;;;26.00;41.10;;;;;;4943708;29;20257;-44
2021/06/22 12:09:35;;;;;;;2.65;1.40;;;26.00;41.00;;;;;;4945161;29;20219;-44
2021/06/22 12:12:02;;;;;;;3.55;1.60;;;26.00;41.00;;;;;;4935031;29;20276;-48
2021/06/22 12:14:28;;;;;;;2.17;1.60;;;26.10;41.20;;;;;;4936354;29;20205;-45
2021/06/22 12:16:57;;;;;;;2.88;1.60;;;26.10;41.30;;;;;;4941857;29;20216;-44
2021/06/22 12:19:23;;;;;;;3.00;1.33;;;26.10;41.30;;;;;;4935771;29;20229;-45
2021/06/22 12:21:50;;;;;;;2.03;1.50;;;26.10;41.30;;;;;;4935397;29;20313;-46
2021/06/22 12:24:16;;;;;;;1.85;1.60;;;26.20;41.50;;;;;;4929189;29;20293;-45
2021/06/22 12:26:43;;;;;;;4.97;1.48;;;26.20;41.60;;;;;;4929816;29;20288;-46
2021/06/22 12:29:09;;;;;;;4.95;1.52;;;26.20;41.60;;;;;;4937906;29;20228;-49
2021/06/22 12:31:36;;;;;;;2.47;1.75;;;26.20;41.70;;;;;;4934059;29;20236;-46
2021/06/22 12:34:05;;;;;;;3.38;1.70;;;26.20;41.80;;;;;;4938066;29;20208;-51
2021/06/22 12:36:31;;;;;;;3.30;1.75;;;26.30;41.80;;;;;;4937917;29;20221;-45
2021/06/22 12:38:59;;;;;;;3.15;1.90;;;26.30;41.70;;;;;;4940302;29;20209;-43
2021/06/22 12:41:26;;;;;;;2.05;1.52;;;26.30;41.50;;;;;;4935140;29;20765;-46
2021/06/22 12:43:52;;;;;;;2.17;1.60;;;26.30;41.70;;;;;;4935655;29;20210;-45
2021/06/22 12:46:19;;;;;;;2.83;1.45;;;26.30;41.70;;;;;;4935162;29;20758;-46
2021/06/22 12:48:45;;;;;;;4.20;1.38;;;26.30;41.80;;;;;;4934102;29;20225;-43